createdAt,value
2023-02-04T00:04:48.196Z,101733.53
2023-02-04T00:09:52.326Z,101736.22
2023-02-04T00:14:55.073Z,101732.59
2023-02-04T00:19:57.819Z,101741.53
2023-02-04T00:25:02.144Z,101747.88
2023-02-04T00:30:05.659Z,101760.81
2023-02-04T00:35:09.365Z,101765.91
2023-02-04T00:40:14.428Z,101764.94
2023-02-04T00:45:17.506Z,101771.16
2023-02-04T00:50:20.555Z,101777.28
2023-02-04T00:55:24.646Z,101788.97
2023-02-04T01:00:27.430Z,101785.66
2023-02-04T01:05:30.272Z,101813.03
2023-02-04T01:10:34.520Z,101806.19
2023-02-04T01:15:37.825Z,101822.66
2023-02-04T01:20:40.564Z,101846.34
2023-02-04T01:25:44.663Z,101847.88
2023-02-04T01:30:47.669Z,101852.97
2023-02-04T01:35:50.493Z,101862.97
2023-02-04T01:40:55.000Z,101865.06
2023-02-04T01:45:58.832Z,101879.50
2023-02-04T01:51:05.994Z,101872.47
2023-02-04T01:56:18.083Z,101875.75
2023-02-04T02:01:38.212Z,101881.25
2023-02-04T02:06:45.102Z,101892.59
2023-02-04T02:11:49.344Z,101896.06
2023-02-04T02:16:52.288Z,101906.59
2023-02-04T02:22:03.537Z,101918.16
2023-02-04T02:27:10.324Z,101936.25
2023-02-04T02:32:15.240Z,101955.53
2023-02-04T02:37:17.982Z,101960.91
2023-02-04T02:42:22.249Z,101962.91
2023-02-04T02:47:25.676Z,101976.53
2023-02-04T02:52:28.804Z,101971.75
2023-02-04T02:57:33.231Z,101970.81
2023-02-04T03:02:36.384Z,101969.63
2023-02-04T03:07:39.308Z,101975.91
2023-02-04T03:12:43.535Z,101969.66
2023-02-04T03:17:47.779Z,101981.34
2023-02-04T03:22:50.734Z,101987.44
2023-02-04T03:27:56.130Z,102007.78
2023-02-04T03:32:59.177Z,102014.81
2023-02-04T03:38:01.961Z,102015.75
2023-02-04T03:43:06.142Z,102033.56
2023-02-04T03:48:08.930Z,102036.28
2023-02-04T03:53:11.916Z,102041.78
2023-02-04T03:58:16.072Z,102051.03
2023-02-04T04:03:18.812Z,102053.25
2023-02-04T04:08:21.604Z,102060.91
2023-02-04T04:13:25.707Z,102084.78
2023-02-04T04:18:28.474Z,102095.44
2023-02-04T04:23:31.254Z,102097.03
2023-02-04T04:28:35.366Z,102108.53
2023-02-04T04:33:38.693Z,102124.59
2023-02-04T04:38:41.467Z,102126.56
2023-02-04T04:43:45.579Z,102125.13
2023-02-04T04:48:48.372Z,102132.41
2023-02-04T04:53:51.091Z,102131.53
2023-02-04T04:58:55.237Z,102147.56
2023-02-04T05:03:57.970Z,102162.75
2023-02-04T05:09:00.787Z,102167.31
2023-02-04T05:14:05.783Z,102172.72
2023-02-04T05:19:08.648Z,102165.69
2023-02-04T05:24:11.469Z,102173.00
2023-02-04T05:29:15.599Z,102170.44
2023-02-04T05:34:18.556Z,102183.94
2023-02-04T05:39:21.332Z,102189.25
2023-02-04T05:44:27.401Z,102198.25
2023-02-04T05:49:30.304Z,102206.25
2023-02-04T05:54:33.405Z,102218.94
2023-02-04T05:59:37.516Z,102228.81
2023-02-04T06:04:40.316Z,102222.72
2023-02-04T06:09:43.182Z,102228.91
2023-02-04T06:14:47.372Z,102232.50
2023-02-04T06:19:50.166Z,102241.41
2023-02-04T06:24:52.943Z,102252.03
2023-02-04T06:29:57.281Z,102263.63
2023-02-04T06:35:00.069Z,102270.75
2023-02-04T06:40:03.267Z,102277.94
2023-02-04T06:45:08.758Z,102274.50
2023-02-04T06:50:12.212Z,102291.38
2023-02-04T06:55:15.596Z,102314.44
2023-02-04T07:00:20.443Z,102307.47
2023-02-04T07:05:23.218Z,102312.91
2023-02-04T07:10:26.085Z,102321.88
2023-02-04T07:15:30.996Z,102329.03
2023-02-04T07:20:34.277Z,102326.38
2023-02-04T07:25:38.847Z,102328.03
2023-02-04T07:30:43.007Z,102339.38
2023-02-04T07:35:47.079Z,102336.66
2023-02-04T07:40:49.849Z,102342.25
2023-02-04T07:45:54.176Z,102352.53
2023-02-04T07:50:56.938Z,102363.09
2023-02-04T07:55:59.719Z,102365.38
2023-02-04T08:01:03.945Z,102373.09
2023-02-04T08:06:07.083Z,102381.72
2023-02-04T08:11:09.840Z,102386.00
2023-02-04T08:16:13.993Z,102387.03
2023-02-04T08:21:18.289Z,102390.31
2023-02-04T08:26:22.126Z,102389.28
2023-02-04T08:31:26.368Z,102389.59
2023-02-04T08:36:29.231Z,102406.28
2023-02-04T08:41:33.507Z,102418.97
2023-02-04T08:46:37.802Z,102408.38
2023-02-04T08:51:40.609Z,102429.13
2023-02-04T08:56:43.389Z,102431.41
2023-02-04T09:01:51.041Z,102440.13
2023-02-04T09:06:54.018Z,102448.81
2023-02-04T09:11:56.884Z,102441.25
2023-02-04T09:17:01.312Z,102444.22
2023-02-04T09:22:04.058Z,102453.16
2023-02-04T09:27:06.864Z,102460.03
2023-02-04T09:32:11.248Z,102469.19
2023-02-04T09:37:14.158Z,102467.88
2023-02-04T09:42:17.791Z,102477.06
2023-02-04T09:47:24.883Z,102480.66
2023-02-04T09:52:29.382Z,102480.91
2023-02-04T09:57:32.167Z,102471.25
2023-02-04T10:02:36.915Z,102481.22
2023-02-04T10:07:39.715Z,102486.63
2023-02-04T10:12:42.506Z,102497.84
2023-02-04T10:18:36.037Z,102498.53
2023-02-04T10:23:40.970Z,102516.34
2023-02-04T10:28:45.947Z,102513.41
2023-02-04T10:33:48.730Z,102513.19
2023-02-04T10:39:02.269Z,102510.56
2023-02-04T10:44:06.889Z,102504.28
2023-02-04T10:49:19.540Z,102504.00
2023-02-04T10:54:33.820Z,102514.69
2023-02-04T10:59:37.737Z,102514.84
2023-02-04T11:04:40.541Z,102516.50
2023-02-04T11:09:45.235Z,102503.44
2023-02-04T11:14:56.509Z,102503.47
2023-02-04T11:20:00.817Z,102503.00
2023-02-04T11:25:05.187Z,102495.72
2023-02-04T11:30:20.533Z,102498.09
2023-02-04T11:35:25.880Z,102506.75
2023-02-04T11:40:32.242Z,102502.75
2023-02-04T11:45:37.461Z,102509.84
2023-02-04T11:50:41.615Z,102512.91
2023-02-04T11:55:47.918Z,102516.38
2023-02-04T12:00:51.969Z,102505.94
2023-02-04T12:05:56.114Z,102513.38
2023-02-04T12:11:07.578Z,102510.19
2023-02-04T12:16:10.530Z,102509.69
2023-02-04T12:21:14.321Z,102519.78
2023-02-04T12:26:18.478Z,102521.63
2023-02-04T12:31:21.359Z,102522.19
2023-02-04T12:36:24.534Z,102532.28
2023-02-04T12:41:28.649Z,102534.19
2023-02-04T12:46:31.520Z,102547.41
2023-02-04T12:51:34.326Z,102534.81
2023-02-04T12:56:38.472Z,102533.44
2023-02-04T13:01:41.280Z,102538.31
2023-02-04T13:06:44.091Z,102543.31
2023-02-04T13:11:48.230Z,102543.56
2023-02-04T13:16:51.027Z,102527.16
2023-02-04T13:21:53.859Z,102519.66
2023-02-04T13:26:58.204Z,102516.69
2023-02-04T13:32:01.106Z,102528.88
2023-02-04T13:37:03.954Z,102526.41
2023-02-04T13:42:08.256Z,102518.34
2023-02-04T13:47:10.993Z,102527.50
2023-02-04T13:52:14.164Z,102536.81
2023-02-04T13:57:18.447Z,102532.75
2023-02-04T14:02:23.982Z,102531.66
2023-02-04T14:07:27.313Z,102547.28
2023-02-04T14:12:31.484Z,102536.50
2023-02-04T14:17:34.274Z,102550.56
2023-02-04T14:22:37.195Z,102537.44
2023-02-04T14:27:42.593Z,102536.88
2023-02-04T14:32:45.558Z,102542.38
2023-02-04T14:37:48.677Z,102541.81
2023-02-04T14:42:52.834Z,102550.53
2023-02-04T14:47:57.541Z,102556.16
2023-02-04T14:53:00.392Z,102555.88
2023-02-04T14:58:04.546Z,102550.94
2023-02-04T15:03:07.389Z,102546.53
2023-02-04T15:08:10.427Z,102541.66
2023-02-04T15:13:14.840Z,102553.78
2023-02-04T15:18:17.705Z,102555.56
2023-02-04T15:23:20.532Z,102562.16
2023-02-04T15:28:24.822Z,102558.78
2023-02-04T15:33:27.614Z,102557.13
2023-02-04T15:45:32.963Z,102557.84
2023-02-04T15:50:35.690Z,102562.13
2023-02-04T15:55:38.182Z,102563.63
2023-02-04T16:00:42.192Z,102562.41
2023-02-04T16:05:44.917Z,102561.34
2023-02-04T16:10:47.737Z,102572.25
2023-02-04T16:15:53.037Z,102575.22
2023-02-04T16:20:55.840Z,102575.69
2023-02-04T16:25:59.179Z,102582.09
2023-02-04T16:31:03.530Z,102582.16
2023-02-04T16:36:10.674Z,102573.41
2023-02-04T16:41:14.190Z,102578.25
2023-02-04T16:46:18.828Z,102573.81
2023-02-04T16:51:21.714Z,102579.31
2023-02-04T16:56:24.845Z,102584.66
2023-02-04T17:01:29.170Z,102593.56
2023-02-04T17:06:35.706Z,102599.78
2023-02-04T17:11:38.689Z,102604.25
2023-02-04T17:16:43.179Z,102599.03
2023-02-04T17:21:46.520Z,102601.84
2023-02-04T17:26:49.266Z,102609.19
2023-02-04T17:31:53.774Z,102608.50
2023-02-04T17:36:56.619Z,102609.41
2023-02-04T17:41:59.431Z,102612.25
2023-02-04T17:47:04.064Z,102615.97
2023-02-04T17:52:07.153Z,102626.06
2023-02-04T17:57:17.926Z,102620.94
2023-02-04T18:02:26.371Z,102616.78
2023-02-04T18:07:29.396Z,102617.81
2023-02-04T18:12:32.649Z,102620.53
2023-02-04T18:17:36.966Z,102614.50
2023-02-04T18:22:39.827Z,102617.63
2023-02-04T18:27:42.613Z,102608.19
2023-02-04T18:32:47.802Z,102609.38
2023-02-04T18:37:52.968Z,102608.66
2023-02-04T18:43:06.565Z,102615.84
2023-02-04T18:48:55.243Z,102616.78
2023-02-04T18:54:01.867Z,102619.41
2023-02-04T18:59:14.430Z,102627.59
2023-02-04T19:04:20.827Z,102632.13
2023-02-04T19:09:26.568Z,102639.28
2023-02-04T19:14:37.388Z,102650.97
2023-02-04T19:19:44.011Z,102653.69
2023-02-04T19:24:48.898Z,102661.72
2023-02-04T19:29:51.910Z,102662.63
2023-02-04T19:34:58.521Z,102647.69
2023-02-04T19:40:03.054Z,102648.75
2023-02-04T19:45:19.207Z,102640.09
2023-02-04T19:50:25.441Z,102632.22
2023-02-04T19:55:33.771Z,102647.28
2023-02-04T20:00:44.715Z,102647.44
2023-02-04T20:05:47.548Z,102640.50
2023-02-04T20:10:51.946Z,102655.63
2023-02-04T20:16:03.796Z,102650.28
2023-02-04T20:21:12.118Z,102648.66
2023-02-04T20:26:16.273Z,102648.75
2023-02-04T20:31:26.207Z,102649.75
2023-02-04T20:36:38.371Z,102642.66
2023-02-04T20:41:43.410Z,102652.41
2023-02-04T20:46:46.382Z,102638.16
2023-02-04T20:51:49.170Z,102627.50
2023-02-04T20:56:53.881Z,102610.84
2023-02-04T21:01:56.765Z,102612.72
2023-02-04T21:07:02.470Z,102610.97
2023-02-04T21:12:07.614Z,102608.41
2023-02-04T21:17:10.413Z,102604.88
2023-02-04T21:22:13.221Z,102596.91
2023-02-04T21:27:21.908Z,102604.00
2023-02-04T21:32:25.770Z,102613.75
2023-02-04T21:37:28.544Z,102618.16
2023-02-04T21:42:32.690Z,102619.06
2023-02-04T21:47:35.471Z,102618.25
2023-02-04T21:52:38.363Z,102612.06
2023-02-04T21:57:44.031Z,102610.38
2023-02-04T22:02:46.997Z,102606.88
2023-02-04T22:07:50.524Z,102592.81
2023-02-04T22:12:54.738Z,102609.53
2023-02-04T22:17:57.691Z,102613.19
2023-02-04T22:23:00.904Z,102601.69
2023-02-04T22:28:05.202Z,102595.59
2023-02-04T22:33:08.217Z,102583.16
2023-02-04T22:38:11.239Z,102582.41
2023-02-04T22:43:15.395Z,102577.19
2023-02-04T22:48:18.147Z,102580.78
2023-02-04T22:53:20.883Z,102585.16
2023-02-04T22:58:25.112Z,102572.75
2023-02-04T23:03:27.887Z,102576.28
2023-02-04T23:08:30.656Z,102575.41
2023-02-04T23:13:34.815Z,102579.84
2023-02-04T23:18:37.653Z,102595.75
2023-02-04T23:23:40.642Z,102585.94
2023-02-04T23:28:44.794Z,102571.84
2023-02-04T23:33:47.536Z,102579.72
2023-02-04T23:38:50.305Z,102575.34
2023-02-04T23:43:54.405Z,102571.84
2023-02-04T23:48:57.174Z,102567.38
2023-02-04T23:54:00.064Z,102567.34
2023-02-04T23:59:04.530Z,102568.41
